Time;durP1;ratioP1;P1;durP2;ratioP2;P2;SDS_P1;SDS_P2;PMS_P1;PMS_P2;Temp;Humidity;BMP_temperature;BMP_pressure;BME280_temperature;BME280_humidity;BME280_pressure;Samples;Min_cycle;Max_cycle;Signal;HPM_P1;HPM_P2
2021/03/04 00:02:17;;;;;;;;;;;;;;;6.80;81.88;101398.91;6162552;23;20385;-73
2021/03/04 00:04:42;;;;;;;;;;;;;;;6.77;81.93;101391.13;6188478;23;19958;-73
2021/03/04 00:07:07;;;;;;;;;;;;;;;6.75;81.94;101392.47;6137423;23;20315;-74
2021/03/04 00:09:33;;;;;;;;;;;;;;;6.70;81.78;101394.03;6188669;23;19983;-73
2021/03/04 00:11:58;;;;;;;;;;;;;;;6.65;81.91;101387.56;6188886;23;20039;-73
2021/03/04 00:14:23;;;;;;;;;;;;;;;6.63;82.07;101395.25;6190150;23;19935;-73
2021/03/04 00:16:49;;;;;;;;;;;;;;;6.62;82.08;101397.16;6190636;23;19915;-73
2021/03/04 00:19:14;;;;;;;;;;;;;;;6.59;82.15;101399.59;6163651;23;19971;-73
2021/03/04 00:21:40;;;;;;;;;;;;;;;6.58;82.29;101401.53;6189893;23;19915;-73
2021/03/04 00:24:05;;;;;;;;;;;;;;;6.57;82.38;101401.75;6164055;23;19956;-74
2021/03/04 00:26:30;;;;;;;;;;;;;;;6.57;82.48;101401.75;6163944;23;19915;-73
2021/03/04 00:28:56;;;;;;;;;;;;;;;6.58;83.06;101403.44;6138819;23;19912;-73
2021/03/04 00:31:21;;;;;;;;;;;;;;;6.58;82.97;101403.44;6189464;23;19909;-73
2021/03/04 00:33:46;;;;;;;;;;;;;;;6.61;83.30;101403.78;6163393;23;20211;-73
2021/03/04 00:36:12;;;;;;;;;;;;;;;6.63;83.32;101401.63;6189934;23;19931;-73
2021/03/04 00:38:37;;;;;;;;;;;;;;;6.66;83.76;101398.38;6164052;23;19916;-73
2021/03/04 00:41:02;;;;;;;;;;;;;;;6.67;83.51;101400.03;6189734;23;19983;-73
2021/03/04 00:43:28;;;;;;;;;;;;;;;6.73;83.55;101400.97;6163580;23;19932;-73
2021/03/04 00:45:53;;;;;;;;;;;;;;;6.76;83.74;101400.47;6164316;23;19958;-73
2021/03/04 00:48:18;;;;;;;;;;;;;;;6.79;83.56;101399.16;6190183;23;19915;-73
2021/03/04 00:50:44;;;;;;;;;;;;;;;6.83;83.46;101401.19;6163483;23;19909;-73
2021/03/04 00:53:09;;;;;;;;;;;;;;;6.86;83.30;101395.16;6163935;23;19912;-73
2021/03/04 00:55:34;;;;;;;;;;;;;;;6.91;82.91;101398.00;6163503;23;19999;-73
2021/03/04 00:58:00;;;;;;;;;;;;;;;6.93;83.19;101395.00;6163180;23;20305;-73
2021/03/04 01:00:25;;;;;;;;;;;;;;;6.96;83.49;101394.50;6190414;23;19916;-73
2021/03/04 01:02:50;;;;;;;;;;;;;;;6.96;83.12;101394.50;6138655;23;19915;-73
2021/03/04 01:05:16;;;;;;;;;;;;;;;6.98;83.15;101399.78;6189687;23;19959;-73
2021/03/04 01:07:41;;;;;;;;;;;;;;;7.01;83.48;101400.09;6139353;23;20398;-73
2021/03/04 01:10:08;;;;;;;;;;;;;;;7.05;83.23;101397.69;6189434;23;20004;-73
2021/03/04 01:12:33;;;;;;;;;;;;;;;7.05;83.15;101392.16;6189736;23;19991;-73
2021/03/04 01:14:59;;;;;;;;;;;;;;;7.08;83.20;101394.44;6163788;23;19912;-73
2021/03/04 01:17:24;;;;;;;;;;;;;;;7.11;83.07;101389.25;6163675;23;19923;-73
2021/03/04 01:19:49;;;;;;;;;;;;;;;7.14;83.13;101393.44;6163263;23;19936;-73
2021/03/04 01:22:15;;;;;;;;;;;;;;;7.18;83.40;101391.84;6163710;23;19912;-74
2021/03/04 01:24:40;;;;;;;;;;;;;;;7.20;83.45;101381.38;6162700;23;20328;-73
2021/03/04 01:27:05;;;;;;;;;;;;;;;7.23;83.34;101393.88;6162991;23;19916;-73
2021/03/04 01:29:31;;;;;;;;;;;;;;;7.26;83.36;101388.66;6138013;23;19931;-73
2021/03/04 01:31:56;;;;;;;;;;;;;;;7.27;83.21;101383.97;6114188;23;19912;-73
2021/03/04 01:34:21;;;;;;;;;;;;;;;7.30;83.26;101375.19;6113772;23;19917;-73
2021/03/04 01:36:47;;;;;;;;;;;;;;;7.31;83.31;101377.72;6138741;23;19908;-73
2021/03/04 01:39:12;;;;;;;;;;;;;;;7.35;83.62;101381.66;6189059;23;19912;-73
2021/03/04 01:41:37;;;;;;;;;;;;;;;7.37;83.52;101376.69;6189257;23;19912;-73
2021/03/04 01:44:03;;;;;;;;;;;;;;;7.38;83.36;101380.28;6189786;23;19908;-73
2021/03/04 01:46:28;;;;;;;;;;;;;;;7.41;83.50;101370.66;6189294;23;19908;-73
2021/03/04 01:48:54;;;;;;;;;;;;;;;7.43;83.24;101372.09;6162690;23;19936;-73
2021/03/04 01:51:19;;;;;;;;;;;;;;;7.44;83.38;101371.00;6138969;23;19908;-74
2021/03/04 01:53:45;;;;;;;;;;;;;;;7.46;83.29;101370.75;6162887;23;19919;-73
2021/03/04 01:56:10;;;;;;;;;;;;;;;7.45;83.11;101369.09;6162637;23;19908;-73
2021/03/04 01:58:35;;;;;;;;;;;;;;;7.46;83.36;101366.03;6138318;23;19908;-73
2021/03/04 02:01:01;;;;;;;;;;;;;;;7.46;83.35;101366.03;6162676;23;20267;-73
2021/03/04 02:03:26;;;;;;;;;;;;;;;7.45;83.14;101360.78;6138430;23;19947;-75
2021/03/04 02:05:51;;;;;;;;;;;;;;;7.47;83.30;101359.44;6163384;23;19909;-74
2021/03/04 02:08:20;;;;;;;;;;;;;;;7.47;83.11;101355.84;6163009;23;20322;-73
2021/03/04 02:10:45;;;;;;;;;;;;;;;7.46;82.97;101345.88;6138211;23;19912;-73
2021/03/04 02:13:13;;;;;;;;;;;;;;;7.45;83.11;101344.22;6188894;23;19935;-74
2021/03/04 02:15:48;;;;;;;;;;;;;;;7.47;83.38;101340.09;6162875;23;19916;-73
2021/03/04 02:18:13;;;;;;;;;;;;;;;7.46;82.94;101338.41;6162417;23;19908;-73
2021/03/04 02:20:57;;;;;;;;;;;;;;;7.44;83.23;101335.09;6189168;23;19945;-74
2021/03/04 02:23:31;;;;;;;;;;;;;;;7.45;83.52;101331.22;6189353;23;19912;-73
2021/03/04 02:25:58;;;;;;;;;;;;;;;7.44;83.29;101331.47;6137652;23;19914;-74
2021/03/04 02:28:24;;;;;;;;;;;;;;;7.42;83.30;101330.91;6187312;23;19908;-73
2021/03/04 02:30:50;;;;;;;;;;;;;;;7.41;83.23;101330.06;6188296;23;19914;-74
2021/03/04 02:33:25;;;;;;;;;;;;;;;7.39;83.35;101322.00;6137579;23;19920;-74
2021/03/04 02:35:51;;;;;;;;;;;;;;;7.37;83.34;101318.66;6162649;23;19912;-73
2021/03/04 02:38:17;;;;;;;;;;;;;;;7.35;83.32;101320.88;6187748;23;19957;-73
2021/03/04 02:40:42;;;;;;;;;;;;;;;7.33;83.35;101305.63;6137324;23;19919;-73
2021/03/04 02:43:12;;;;;;;;;;;;;;;7.34;83.43;101313.63;6162643;23;19984;-74
2021/03/04 02:45:37;;;;;;;;;;;;;;;7.31;83.31;101313.31;6114235;23;19983;-73
2021/03/04 02:48:03;;;;;;;;;;;;;;;7.29;83.59;101313.56;6162334;23;19908;-73
2021/03/04 02:50:28;;;;;;;;;;;;;;;7.30;83.58;101311.63;6137840;23;19916;-74
2021/03/04 02:52:54;;;;;;;;;;;;;;;7.28;83.54;101313.81;6162915;23;19943;-75
2021/03/04 02:55:19;;;;;;;;;;;;;;;7.26;83.53;101316.84;6162469;23;19909;-74
2021/03/04 02:57:46;;;;;;;;;;;;;;;7.28;83.64;101314.66;6137679;23;19909;-74
2021/03/04 03:00:18;;;;;;;;;;;;;;;7.27;83.80;101307.47;6137997;23;19991;-74
2021/03/04 03:02:43;;;;;;;;;;;;;;;7.27;83.56;101301.94;6162106;23;19910;-74
2021/03/04 03:05:09;;;;;;;;;;;;;;;7.29;84.03;101308.03;6188445;23;19919;-74
2021/03/04 03:07:38;;;;;;;;;;;;;;;7.30;83.86;101295.91;6163445;23;19908;-74
2021/03/04 03:10:04;;;;;;;;;;;;;;;7.30;83.77;101292.28;6161804;23;19946;-73
2021/03/04 03:12:29;;;;;;;;;;;;;;;7.30;83.70;101279.31;6188800;23;19916;-74
2021/03/04 03:14:55;;;;;;;;;;;;;;;7.30;83.61;101279.31;6162851;23;20330;-74
2021/03/04 03:17:20;;;;;;;;;;;;;;;7.30;83.71;101284.84;6137865;23;20276;-74
2021/03/04 03:19:45;;;;;;;;;;;;;;;7.32;83.73;101277.13;6137638;23;19927;-73
2021/03/04 03:22:11;;;;;;;;;;;;;;;7.32;83.60;101276.28;6188942;23;19944;-73
2021/03/04 03:24:36;;;;;;;;;;;;;;;7.31;83.31;101269.94;6188602;23;19936;-74
2021/03/04 03:27:01;;;;;;;;;;;;;;;7.33;83.59;101273.28;6137078;23;19912;-74
2021/03/04 03:29:27;;;;;;;;;;;;;;;7.34;83.66;101282.41;6161489;23;19908;-74
2021/03/04 03:31:52;;;;;;;;;;;;;;;7.35;83.69;101275.78;6188562;23;20223;-73
2021/03/04 03:34:17;;;;;;;;;;;;;;;7.35;83.85;101271.13;6162005;23;19947;-73
2021/03/04 03:36:43;;;;;;;;;;;;;;;7.36;83.49;101266.44;6162481;23;19915;-73
2021/03/04 03:39:08;;;;;;;;;;;;;;;7.36;83.59;101261.72;6162309;23;20533;-73
2021/03/04 03:41:34;;;;;;;;;;;;;;;7.36;83.62;101272.78;6162095;23;19912;-73
2021/03/04 03:44:00;;;;;;;;;;;;;;;7.35;83.77;101268.34;6137453;23;19931;-73
2021/03/04 03:46:26;;;;;;;;;;;;;;;7.36;83.68;101261.72;6187022;23;19912;-73
2021/03/04 03:48:51;;;;;;;;;;;;;;;7.36;83.43;101270.03;6190679;23;20306;-74
2021/03/04 03:51:17;;;;;;;;;;;;;;;7.33;83.29;101266.94;6139855;23;19916;-73
2021/03/04 03:53:42;;;;;;;;;;;;;;;7.34;83.50;101268.59;6139732;23;19970;-74
2021/03/04 03:56:07;;;;;;;;;;;;;;;7.34;83.54;101272.19;6163871;23;19909;-74
2021/03/04 03:58:35;;;;;;;;;;;;;;;7.30;83.45;101260.00;6139171;23;19987;-74
2021/03/04 04:01:00;;;;;;;;;;;;;;;7.31;83.29;101264.41;6139072;23;19908;-73
2021/03/04 04:03:26;;;;;;;;;;;;;;;7.27;83.22;101260.50;6163877;23;19915;-73
2021/03/04 04:05:51;;;;;;;;;;;;;;;7.26;83.44;101253.28;6115261;23;19908;-73
2021/03/04 04:08:17;;;;;;;;;;;;;;;7.28;83.62;101264.09;6139322;23;20534;-73
2021/03/04 04:10:44;;;;;;;;;;;;;;;7.24;83.58;101252.69;6163771;23;19912;-73
2021/03/04 04:13:09;;;;;;;;;;;;;;;7.25;83.46;101254.38;6190136;23;20332;-73
2021/03/04 04:15:34;;;;;;;;;;;;;;;7.21;83.49;101258.72;6190420;23;19951;-73
2021/03/04 04:18:00;;;;;;;;;;;;;;;7.18;83.58;101256.47;6163327;23;19908;-73
2021/03/04 04:20:26;;;;;;;;;;;;;;;7.21;83.67;101246.84;6115043;23;19943;-73
2021/03/04 04:22:52;;;;;;;;;;;;;;;7.20;83.76;101247.94;6164028;23;19908;-73
2021/03/04 04:25:20;;;;;;;;;;;;;;;7.18;83.43;101247.34;6164002;23;19920;-73
2021/03/04 04:27:45;;;;;;;;;;;;;;;7.18;83.76;101253.72;6115068;23;19908;-74
2021/03/04 04:30:11;;;;;;;;;;;;;;;7.18;83.73;101253.72;6113875;23;19914;-74
2021/03/04 04:32:36;;;;;;;;;;;;;;;7.16;83.87;101255.91;6189925;23;19915;-73
2021/03/04 04:35:02;;;;;;;;;;;;;;;7.16;83.97;101250.38;6139462;23;20333;-73
2021/03/04 04:37:27;;;;;;;;;;;;;;;7.14;83.91;101247.88;6163972;23;19961;-73
2021/03/04 04:39:52;;;;;;;;;;;;;;;7.12;83.92;101250.03;6163379;23;20305;-74
2021/03/04 04:42:18;;;;;;;;;;;;;;;7.11;83.71;101262.19;6163561;23;19912;-73
2021/03/04 04:44:43;;;;;;;;;;;;;;;7.09;83.82;101253.31;6190264;23;19943;-73
2021/03/04 04:47:08;;;;;;;;;;;;;;;7.11;83.73;101251.13;6163636;23;19908;-73
2021/03/04 04:49:34;;;;;;;;;;;;;;;7.09;83.97;101249.72;6139307;23;19908;-73
2021/03/04 04:51:59;;;;;;;;;;;;;;;7.08;84.01;101243.34;6163518;23;20387;-73
2021/03/04 04:54:24;;;;;;;;;;;;;;;7.08;83.79;101248.06;6163329;23;19908;-74
2021/03/04 04:56:50;;;;;;;;;;;;;;;7.09;84.01;101250.53;6163815;23;19944;-73
2021/03/04 04:59:15;;;;;;;;;;;;;;;7.10;83.75;101246.72;6137987;23;20327;-73
2021/03/04 05:01:40;;;;;;;;;;;;;;;7.08;83.80;101245.28;6163314;23;19909;-73
2021/03/04 05:04:06;;;;;;;;;;;;;;;7.05;83.89;101238.34;6163992;23;19964;-73
2021/03/04 05:06:31;;;;;;;;;;;;;;;7.05;83.93;101248.53;6114498;23;20365;-73
2021/03/04 05:08:56;;;;;;;;;;;;;;;7.04;83.98;101246.88;6138309;23;19908;-73
2021/03/04 05:11:21;;;;;;;;;;;;;;;7.03;84.07;101247.97;6163683;23;19964;-73
2021/03/04 05:13:47;;;;;;;;;;;;;;;7.02;84.05;101249.91;6162950;23;20393;-73
2021/03/04 05:16:12;;;;;;;;;;;;;;;7.02;84.09;101249.91;6114307;23;19914;-73
2021/03/04 05:18:38;;;;;;;;;;;;;;;7.03;84.24;101247.97;6189839;23;20245;-74
2021/03/04 05:21:03;;;;;;;;;;;;;;;7.05;84.29;101256.81;6138500;23;20322;-73
2021/03/04 05:23:29;;;;;;;;;;;;;;;7.02;84.06;101251.78;6138321;23;20374;-74
2021/03/04 05:25:54;;;;;;;;;;;;;;;7.04;84.01;101244.09;6189822;23;19908;-74
2021/03/04 05:28:19;;;;;;;;;;;;;;;7.03;84.21;101239.69;6162920;23;19915;-74
2021/03/04 05:30:45;;;;;;;;;;;;;;;7.03;83.99;101239.69;6112730;23;19912;-73
2021/03/04 05:33:11;;;;;;;;;;;;;;;7.04;83.98;101241.34;6163242;23;19916;-74
2021/03/04 05:35:36;;;;;;;;;;;;;;;7.08;84.27;101239.75;6138489;23;19931;-73
2021/03/04 05:38:02;;;;;;;;;;;;;;;7.06;84.10;101236.41;6113732;23;19966;-73
2021/03/04 05:40:27;;;;;;;;;;;;;;;7.05;84.23;101235.56;6138577;23;20325;-74
2021/03/04 05:42:52;;;;;;;;;;;;;;;7.07;84.36;101240.84;6113862;23;19908;-74
2021/03/04 05:45:18;;;;;;;;;;;;;;;7.06;84.02;101240.00;6163064;23;20244;-74
2021/03/04 05:47:43;;;;;;;;;;;;;;;7.08;84.38;101237.00;6163323;23;19951;-73
2021/03/04 05:50:09;;;;;;;;;;;;;;;7.08;84.37;101237.00;6163074;23;20326;-73
2021/03/04 05:52:35;;;;;;;;;;;;;;;7.10;84.22;101234.81;6138041;23;19941;-74
2021/03/04 05:55:01;;;;;;;;;;;;;;;7.06;84.41;101231.72;6163314;23;20329;-73
2021/03/04 05:57:27;;;;;;;;;;;;;;;7.09;84.23;101228.44;6162662;23;19955;-74
2021/03/04 05:59:53;;;;;;;;;;;;;;;7.10;84.29;101229.28;6137669;23;19919;-74
2021/03/04 06:02:19;;;;;;;;;;;;;;;7.08;84.35;101234.25;6189472;23;19912;-73
2021/03/04 06:04:45;;;;;;;;;;;;;;;7.08;84.40;101235.06;6163012;23;20314;-74
2021/03/04 06:07:10;;;;;;;;;;;;;;;7.07;84.57;101227.03;6137835;23;19987;-73
2021/03/04 06:09:35;;;;;;;;;;;;;;;7.09;84.70;101227.63;6113517;23;19912;-73
2021/03/04 06:12:05;;;;;;;;;;;;;;;7.09;84.35;101222.09;6162723;23;19939;-74
2021/03/04 06:14:30;;;;;;;;;;;;;;;7.07;84.64;101230.63;6162631;23;19920;-74
2021/03/04 06:16:56;;;;;;;;;;;;;;;7.08;84.55;101226.78;6163224;23;19940;-73
2021/03/04 06:19:21;;;;;;;;;;;;;;;7.09;84.24;101222.09;6162721;23;19917;-75
2021/03/04 06:21:57;;;;;;;;;;;;;;;7.09;84.68;101222.91;6162919;23;19914;-74
2021/03/04 06:24:22;;;;;;;;;;;;;;;7.09;84.86;101224.84;6113549;23;19915;-74
2021/03/04 06:26:54;;;;;;;;;;;;;;;7.09;85.33;101222.09;6163000;23;19908;-73
2021/03/04 06:29:21;;;;;;;;;;;;;;;7.10;85.67;101229.28;6137754;23;19913;-74
2021/03/04 06:31:57;;;;;;;;;;;;;;;7.09;85.65;101222.09;6161844;23;20381;-74
2021/03/04 06:34:22;;;;;;;;;;;;;;;7.07;85.08;101225.09;6162799;23;20323;-73
2021/03/04 06:36:52;;;;;;;;;;;;;;;7.08;85.20;101221.25;6162746;23;19912;-73
2021/03/04 06:39:17;;;;;;;;;;;;;;;7.10;85.36;101226.50;6137408;23;19951;-73
2021/03/04 06:41:42;;;;;;;;;;;;;;;7.08;85.06;101225.97;6138424;23;19908;-73
2021/03/04 06:44:09;;;;;;;;;;;;;;;7.10;85.21;101226.50;6188119;23;19909;-73
2021/03/04 06:46:44;;;;;;;;;;;;;;;7.10;85.12;101232.03;6138298;23;20291;-73
2021/03/04 06:49:09;;;;;;;;;;;;;;;7.13;85.35;101226.00;6189271;23;19963;-74
2021/03/04 06:51:41;;;;;;;;;;;;;;;7.13;85.54;101234.28;6188462;23;20123;-73
2021/03/04 06:54:07;;;;;;;;;;;;;;;7.13;85.02;101237.91;6113504;23;19909;-73
2021/03/04 06:56:32;;;;;;;;;;;;;;;7.14;85.31;101235.97;6163140;23;19939;-74
2021/03/04 06:59:01;;;;;;;;;;;;;;;7.12;84.95;101230.69;6161926;23;19963;-74
2021/03/04 07:01:26;;;;;;;;;;;;;;;7.14;85.60;101230.47;6161912;23;20433;-74
2021/03/04 07:03:52;;;;;;;;;;;;;;;7.13;85.67;101229.63;6162866;23;19936;-74
2021/03/04 07:06:18;;;;;;;;;;;;;;;7.18;85.22;101242.66;6113558;23;19915;-74
2021/03/04 07:08:44;;;;;;;;;;;;;;;7.19;84.81;101240.72;6137266;23;19908;-74
2021/03/04 07:11:12;;;;;;;;;;;;;;;7.18;85.27;101242.66;6189075;23;19935;-75
2021/03/04 07:13:38;;;;;;;;;;;;;;;7.18;86.03;101237.13;6137608;23;20038;-74
2021/03/04 07:16:07;;;;;;;;;;;;;;;7.16;85.43;101233.81;6137211;23;19914;-74
2021/03/04 07:18:40;;;;;;;;;;;;;;;7.19;85.22;101233.31;6188935;23;19947;-74
2021/03/04 07:21:10;;;;;;;;;;;;;;;7.21;85.54;101230.28;6162677;23;19986;-74
2021/03/04 07:23:39;;;;;;;;;;;;;;;7.21;85.81;101231.09;6139023;23;19943;-74
2021/03/04 07:26:04;;;;;;;;;;;;;;;7.22;85.66;101232.78;6190007;23;19943;-74
2021/03/04 07:28:30;;;;;;;;;;;;;;;7.23;86.36;101231.69;6139603;23;19912;-74
2021/03/04 07:30:55;;;;;;;;;;;;;;;7.25;85.67;101237.81;6138481;23;19944;-74
2021/03/04 07:33:21;;;;;;;;;;;;;;;7.27;85.49;101241.16;6164410;23;20451;-72
2021/03/04 07:36:09;;;;;;;;;;;;;;;7.27;85.44;101235.63;6164426;23;19943;-80
2021/03/04 07:39:09;;;;;;;;;;;;;;;7.32;86.53;101240.38;6141937;23;19908;-76
2021/03/04 07:41:38;;;;;;;;;;;;;;;7.35;86.28;101245.38;6153919;23;19908;-76
2021/03/04 07:44:26;;;;;;;;;;;;;;;7.36;86.84;101238.78;6115407;23;19912;-76
2021/03/04 07:46:55;;;;;;;;;;;;;;;7.38;86.86;101244.88;6190802;23;19909;-75
2021/03/04 07:49:30;;;;;;;;;;;;;;;7.41;86.61;101247.16;6139076;23;20308;-75
2021/03/04 07:51:58;;;;;;;;;;;;;;;7.44;86.25;101245.78;6190716;23;19909;-75
2021/03/04 07:54:27;;;;;;;;;;;;;;;7.46;86.35;101247.19;6115666;23;19999;-75
2021/03/04 07:57:02;;;;;;;;;;;;;;;7.50;85.97;101247.56;6139210;23;19909;-74
2021/03/04 07:59:28;;;;;;;;;;;;;;;7.54;86.43;101248.69;6190129;23;19912;-75
2021/03/04 08:01:56;;;;;;;;;;;;;;;7.60;86.83;101253.19;6164980;23;19919;-74
2021/03/04 08:04:22;;;;;;;;;;;;;;;7.62;86.55;101253.78;6163639;23;20419;-75
2021/03/04 08:06:49;;;;;;;;;;;;;;;7.68;86.36;101247.22;6164450;23;19990;-75
2021/03/04 08:09:27;;;;;;;;;;;;;;;7.75;87.23;101245.13;6139539;23;20326;-74
2021/03/04 08:12:03;;;;;;;;;;;;;;;7.80;85.70;101247.94;6163632;23;19912;-75
2021/03/04 08:14:28;;;;;;;;;;;;;;;7.89;85.41;101247.50;6139360;23;19912;-74
2021/03/04 08:16:54;;;;;;;;;;;;;;;7.94;85.32;101244.75;6164121;23;19994;-74
2021/03/04 08:19:19;;;;;;;;;;;;;;;8.00;85.39;101252.06;6162517;23;19940;-71
2021/03/04 08:21:45;;;;;;;;;;;;;;;8.07;85.07;101252.66;6138141;23;19908;-72
2021/03/04 08:24:12;;;;;;;;;;;;;;;8.14;85.45;101244.19;6190432;23;19948;-72
2021/03/04 08:26:37;;;;;;;;;;;;;;;8.20;85.50;101252.28;6189633;23;19908;-72
2021/03/04 08:29:03;;;;;;;;;;;;;;;8.24;85.88;101250.63;6163667;23;19915;-76
2021/03/04 08:31:28;;;;;;;;;;;;;;;8.31;86.00;101252.38;6138600;23;19908;-76
2021/03/04 08:33:56;;;;;;;;;;;;;;;8.37;86.52;101254.09;6138796;23;19951;-77
2021/03/04 08:36:22;;;;;;;;;;;;;;;8.42;87.88;101248.66;6139457;23;20214;-77
2021/03/04 08:38:47;;;;;;;;;;;;;;;8.48;88.12;101247.59;6138823;23;19916;-77
2021/03/04 08:41:18;;;;;;;;;;;;;;;8.53;87.05;101241.28;6139113;23;19962;-76
2021/03/04 08:43:44;;;;;;;;;;;;;;;8.57;86.99;101239.66;6114668;23;19915;-76
2021/03/04 08:46:09;;;;;;;;;;;;;;;8.61;87.01;101241.66;6138729;23;19908;-77
2021/03/04 08:48:41;;;;;;;;;;;;;;;8.66;86.70;101238.94;6139412;23;19908;-77
2021/03/04 08:51:07;;;;;;;;;;;;;;;8.69;86.78;101246.72;6114905;23;19912;-76
2021/03/04 08:53:33;;;;;;;;;;;;;;;8.76;86.79;101245.63;6163447;23;19958;-76
2021/03/04 08:55:59;;;;;;;;;;;;;;;8.78;85.89;101238.75;6189917;23;19951;-76
2021/03/04 08:58:25;;;;;;;;;;;;;;;8.85;86.28;101258.72;6163662;23;20373;-77
2021/03/04 09:00:54;;;;;;;;;;;;;;;8.89;86.36;101248.81;6114188;23;19912;-77
2021/03/04 09:03:20;;;;;;;;;;;;;;;8.95;87.48;101247.75;6190098;23;19918;-77
2021/03/04 09:05:45;;;;;;;;;;;;;;;9.02;87.43;101249.44;6138990;23;19924;-77
2021/03/04 09:08:14;;;;;;;;;;;;;;;9.06;87.07;101254.19;6114548;23;19909;-77
2021/03/04 09:10:43;;;;;;;;;;;;;;;9.11;86.85;101254.25;6163683;23;20242;-77
2021/03/04 09:13:08;;;;;;;;;;;;;;;9.13;87.11;101257.56;6138186;23;19943;-77
2021/03/04 09:15:34;;;;;;;;;;;;;;;9.20;86.66;101240.72;6190011;23;19913;-77
2021/03/04 09:18:04;;;;;;;;;;;;;;;9.25;86.64;101254.63;6189821;23;19986;-76
2021/03/04 09:20:29;;;;;;;;;;;;;;;9.33;87.35;101253.25;6163027;23;19920;-77
2021/03/04 09:22:55;;;;;;;;;;;;;;;9.39;87.10;101254.97;6190090;23;19909;-77
2021/03/04 09:25:20;;;;;;;;;;;;;;;9.45;87.42;101253.06;6189416;23;19908;-77
2021/03/04 09:27:46;;;;;;;;;;;;;;;9.51;86.07;101247.28;6189253;23;19962;-77
2021/03/04 09:30:21;;;;;;;;;;;;;;;9.58;85.85;101261.75;6162922;23;19982;-77
2021/03/04 09:32:47;;;;;;;;;;;;;;;9.66;85.42;101254.81;6138556;23;20410;-77
2021/03/04 09:35:12;;;;;;;;;;;;;;;9.73;86.50;101255.44;6114496;23;19919;-77
2021/03/04 09:37:38;;;;;;;;;;;;;;;9.78;86.38;101249.06;6138699;23;19912;-77
2021/03/04 09:40:03;;;;;;;;;;;;;;;9.81;86.51;101246.59;6188940;23;19921;-76
2021/03/04 09:42:36;;;;;;;;;;;;;;;9.87;86.76;101235.50;6163249;23;19971;-75
2021/03/04 09:45:05;;;;;;;;;;;;;;;9.89;86.38;101242.47;6162264;23;19962;-75
2021/03/04 09:47:31;;;;;;;;;;;;;;;9.95;86.18;101240.53;6163586;23;19916;-74
2021/03/04 09:50:00;;;;;;;;;;;;;;;9.98;86.55;101245.53;6138941;23;20314;-74
2021/03/04 09:52:25;;;;;;;;;;;;;;;10.01;86.28;101245.81;6137843;23;19958;-74
2021/03/04 09:54:51;;;;;;;;;;;;;;;10.06;85.48;101247.78;6162921;23;20358;-74
2021/03/04 09:57:17;;;;;;;;;;;;;;;10.10;84.80;101248.06;6162797;23;20333;-74
2021/03/04 09:59:43;;;;;;;;;;;;;;;10.12;84.45;101240.31;6188832;23;19919;-74
2021/03/04 10:02:09;;;;;;;;;;;;;;;10.15;84.03;101246.16;6113906;23;19915;-74
2021/03/04 10:04:34;;;;;;;;;;;;;;;10.18;83.94;101239.22;6163109;23;19990;-74
2021/03/04 10:06:59;;;;;;;;;;;;;;;10.23;83.95;101242.00;6162844;23;19912;-75
2021/03/04 10:09:25;;;;;;;;;;;;;;;10.26;84.04;101235.91;6163362;23;19909;-74
2021/03/04 10:11:51;;;;;;;;;;;;;;;10.31;83.84;101232.31;6137659;23;19912;-75
2021/03/04 10:14:16;;;;;;;;;;;;;;;10.37;83.95;101236.78;6162776;23;20344;-75
2021/03/04 10:16:41;;;;;;;;;;;;;;;10.40;83.48;101231.53;6138587;23;19908;-75
2021/03/04 10:19:07;;;;;;;;;;;;;;;10.46;83.57;101230.41;6138071;23;19912;-74
2021/03/04 10:21:33;;;;;;;;;;;;;;;10.54;82.98;101226.25;6163445;23;19908;-74
2021/03/04 10:23:58;;;;;;;;;;;;;;;10.63;83.01;101229.31;6163100;23;19908;-74
2021/03/04 10:26:24;;;;;;;;;;;;;;;10.72;82.67;101230.41;6162505;23;19916;-74
2021/03/04 10:28:49;;;;;;;;;;;;;;;10.81;82.85;101223.22;6138227;23;19991;-75
2021/03/04 10:31:15;;;;;;;;;;;;;;;10.91;83.08;101219.59;6136750;23;19947;-74
2021/03/04 10:33:40;;;;;;;;;;;;;;;11.00;82.23;101225.41;6162787;23;19968;-74
2021/03/04 10:36:06;;;;;;;;;;;;;;;11.09;82.21;101226.53;6138258;23;19936;-74
2021/03/04 10:38:31;;;;;;;;;;;;;;;11.16;81.39;101227.06;6162541;23;19909;-74
2021/03/04 10:40:56;;;;;;;;;;;;;;;11.24;81.21;101218.16;6162689;23;19952;-75
2021/03/04 10:43:22;;;;;;;;;;;;;;;11.33;81.32;101226.75;6137790;23;19916;-74
2021/03/04 10:45:47;;;;;;;;;;;;;;;11.43;81.58;101218.38;6138193;23;19963;-75
2021/03/04 10:48:16;;;;;;;;;;;;;;;11.53;81.38;101223.06;6189165;23;19986;-74
2021/03/04 10:50:42;;;;;;;;;;;;;;;11.61;81.26;101219.72;6138119;23;19916;-74
2021/03/04 10:53:07;;;;;;;;;;;;;;;11.69;81.24;101218.28;6188917;23;19908;-74
2021/03/04 10:55:32;;;;;;;;;;;;;;;11.74;80.41;101227.47;6138439;23;19995;-75
2021/03/04 10:57:58;;;;;;;;;;;;;;;11.78;79.78;101217.44;6161694;23;19916;-75
2021/03/04 11:00:23;;;;;;;;;;;;;;;11.82;79.64;101217.69;6188892;23;19998;-74
2021/03/04 11:02:49;;;;;;;;;;;;;;;11.83;79.39;101220.16;6137655;23;19909;-74
2021/03/04 11:05:17;;;;;;;;;;;;;;;11.87;78.93;101223.28;6162350;23;19908;-78
2021/03/04 11:07:42;;;;;;;;;;;;;;;11.90;78.58;101206.00;6162733;23;20264;-75
2021/03/04 11:10:08;;;;;;;;;;;;;;;11.97;78.73;101214.03;6137306;23;19964;-74
2021/03/04 11:12:34;;;;;;;;;;;;;;;12.01;78.88;101213.16;6162096;23;19991;-74
2021/03/04 11:14:59;;;;;;;;;;;;;;;12.07;78.87;101219.53;6162507;23;19912;-74
2021/03/04 11:17:24;;;;;;;;;;;;;;;12.13;78.28;101221.19;6188559;23;19912;-74
2021/03/04 11:19:50;;;;;;;;;;;;;;;12.17;77.68;101213.91;6138431;23;19919;-74
2021/03/04 11:22:17;;;;;;;;;;;;;;;12.23;77.46;101223.91;6162068;23;19920;-74
2021/03/04 11:24:44;;;;;;;;;;;;;;;12.29;77.03;101216.34;6162647;23;19915;-76
2021/03/04 11:27:10;;;;;;;;;;;;;;;12.31;77.24;101214.09;6137874;23;20392;-75
2021/03/04 11:29:35;;;;;;;;;;;;;;;12.35;76.89;101219.94;6187248;23;19917;-75
2021/03/04 11:32:19;;;;;;;;;;;;;;;12.30;76.90;101216.06;6112604;23;19916;-78
2021/03/04 11:34:44;;;;;;;;;;;;;;;12.38;76.94;101214.63;6137737;23;19917;-75
2021/03/04 11:37:10;;;;;;;;;;;;;;;12.42;77.18;101209.28;6161744;23;19931;-75
2021/03/04 11:39:36;;;;;;;;;;;;;;;12.47;77.48;101214.81;6113241;23;19917;-75
2021/03/04 11:42:01;;;;;;;;;;;;;;;12.51;77.33;101204.78;6137466;23;19908;-74
2021/03/04 11:44:27;;;;;;;;;;;;;;;12.57;77.02;101200.00;6188640;23;20034;-75
2021/03/04 11:46:52;;;;;;;;;;;;;;;12.59;76.71;101204.16;6138596;23;20306;-74
2021/03/04 11:49:17;;;;;;;;;;;;;;;12.64;76.48;101204.09;6137193;23;19914;-75
2021/03/04 11:51:43;;;;;;;;;;;;;;;12.68;76.13;101202.41;6162720;23;19918;-75
2021/03/04 11:54:08;;;;;;;;;;;;;;;12.71;76.28;101201.81;6188504;23;20322;-75
2021/03/04 11:56:34;;;;;;;;;;;;;;;12.73;76.18;101199.59;6162117;23;19908;-75
2021/03/04 11:59:02;;;;;;;;;;;;;;;12.77;76.25;101199.81;6162149;23;19912;-75
2021/03/04 12:01:27;;;;;;;;;;;;;;;12.73;76.24;101194.00;6138248;23;19936;-75
2021/03/04 12:03:53;;;;;;;;;;;;;;;12.74;76.16;101190.09;6137412;23;19915;-75
2021/03/04 12:06:18;;;;;;;;;;;;;;;12.75;75.87;101188.13;6162901;23;19983;-75
2021/03/04 12:08:45;;;;;;;;;;;;;;;12.73;76.06;101191.22;6113931;23;19909;-75
2021/03/04 12:11:10;;;;;;;;;;;;;;;12.72;75.98;101192.31;6190251;23;19912;-75
2021/03/04 12:13:35;;;;;;;;;;;;;;;12.73;76.02;101185.66;6139531;23;19916;-75
2021/03/04 12:16:04;;;;;;;;;;;;;;;12.65;75.73;101183.50;6138907;23;19909;-75
2021/03/04 12:18:30;;;;;;;;;;;;;;;12.68;75.77;101180.13;6140675;23;19947;-75
2021/03/04 12:20:55;;;;;;;;;;;;;;;12.68;75.57;101182.91;6190185;23;19913;-75
2021/03/04 12:23:20;;;;;;;;;;;;;;;12.66;75.63;101176.78;6139337;23;19938;-75
2021/03/04 12:25:46;;;;;;;;;;;;;;;12.68;75.66;101177.31;6164065;23;19916;-75
2021/03/04 12:28:11;;;;;;;;;;;;;;;12.65;75.72;101175.13;6138569;23;19935;-75
2021/03/04 12:30:37;;;;;;;;;;;;;;;12.64;75.69;101176.22;6137918;23;19908;-74
2021/03/04 12:33:02;;;;;;;;;;;;;;;12.62;75.22;101174.84;6138376;23;19935;-74
2021/03/04 12:35:28;;;;;;;;;;;;;;;12.59;75.20;101172.66;6163418;23;20270;-73
2021/03/04 12:37:53;;;;;;;;;;;;;;;12.54;75.26;101176.34;6163950;23;19912;-74
2021/03/04 12:40:18;;;;;;;;;;;;;;;12.51;75.41;101174.13;6138385;23;19947;-74
2021/03/04 12:42:44;;;;;;;;;;;;;;;12.46;75.50;101171.38;6163467;23;19908;-74